Terminal Aerodrome Forecast
Issued by NWS Albuquerque, NM

Home | Current Version | Previous Version | Text Only | Print | Product List | Glossary On
Versions: 1 2 3 4 5 6 7 8 9 10 11 12 13 14 15 16 17
000
FTUS45 KABQ 210500
TAFABQ
TAF
KABQ 210534Z 2106/2206 12010KT P6SM VCSH BKN060 BKN100
     FM210700 10008KT P6SM SCT060 BKN100
     FM211100 03006KT P6SM FEW050 SCT100
     FM211900 17008KT P6SM VCTS SCT060CB BKN100=

USA.gov is the U.S. government's official web portal to all federal, state and local government web resources and services.